This is the latest recevied weather packets stored in our database for station/object WB9TLH-11. If no packets are shown the sender has not sent any weather packets the latest 10 day(s).
| Time | Temp. | Humidity | Pressure | Rain* | Wind** | Luminosity | Snow |
|---|---|---|---|---|---|---|---|
| 1777967919 | 14.44° C | 78% | 1008.7 hPa | 2.79 mm | - | - | - |
| 1777967753 | 14.44° C | 78% | 1008.7 hPa | 2.79 mm | - | - | - |
| 1777967453 | 14.44° C | 77% | 1008.8 hPa | 2.54 mm | - | - | - |
| 1777967153 | 14.44° C | 75% | 1008.7 hPa | 2.29 mm | - | - | - |
| 1777966853 | 15° C | 73% | 1008 hPa | 2.03 mm | - | - | - |
| 1777966553 | 16.67° C | 68% | 1007.9 hPa | 0.51 mm | - | - | - |
| 1777966252 | 18.33° C | 62% | 1007.4 hPa | 0 mm | - | - | - |
| 1777965953 | 19.44° C | 55% | 1007.2 hPa | 0 mm | - | - | - |
| 1777965653 | 20° C | 50% | 1006 hPa | 0 mm | - | - | - |
| 1777965353 | 20° C | 48% | 1005.3 hPa | 0 mm | - | - | - |
| 1777965053 | 20° C | 48% | 1005.1 hPa | 0 mm | - | - | - |
| 1777964753 | 20° C | 48% | 1005.1 hPa | 0 mm | - | - | - |
| 1777964453 | 20° C | 48% | 1005.1 hPa | 0 mm | - | - | - |
| 1777964153 | 20° C | 48% | 1005.1 hPa | 0 mm | - | - | - |
| 1777963853 | 20° C | 48% | 1005 hPa | 0 mm | - | - | - |
| 1777963553 | 20° C | 47% | 1005.1 hPa | 0 mm | - | - | - |
| 1777963253 | 20° C | 47% | 1005.3 hPa | 0 mm | - | - | - |
| 1777962953 | 20° C | 47% | 1005.1 hPa | 0 mm | - | - | - |
| 1777962653 | 20° C | 47% | 1005.1 hPa | 0 mm | - | - | - |
| 1777962353 | 20° C | 46% | 1005.1 hPa | 0 mm | - | - | - |
| 1777962053 | 20.56° C | 46% | 1005.1 hPa | 0 mm | - | - | - |
| 1777961753 | 20.56° C | 46% | 1005 hPa | 0 mm | - | - | - |
| 1777961453 | 20.56° C | 46% | 1005 hPa | 0 mm | - | - | - |
| 1777961153 | 20.56° C | 46% | 1004.9 hPa | 0 mm | - | - | - |
| 1777960853 | 20.56° C | 46% | 1005 hPa | 0 mm | - | - | - |
* Rain latest hour (hover to see other rain measurements)
** Current wind speed in m/s (hover to see current wind gust speed)